createdAt,value
2022-08-26T00:01:45.140Z,22.88
2022-08-26T00:04:12.674Z,22.88
2022-08-26T00:06:42.501Z,22.88
2022-08-26T00:09:16.020Z,22.89
2022-08-26T00:11:44.761Z,22.88
2022-08-26T00:14:13.880Z,22.87
2022-08-26T00:16:47.495Z,22.87
2022-08-26T00:19:20.348Z,22.88
2022-08-26T00:21:48.863Z,22.88
2022-08-26T00:24:18.055Z,22.88
2022-08-26T00:26:44.862Z,22.88
2022-08-26T00:29:12.269Z,22.87
2022-08-26T00:31:39.232Z,22.88
2022-08-26T00:34:06.778Z,22.87
2022-08-26T00:36:36.160Z,22.87
2022-08-26T00:39:04.367Z,22.88
2022-08-26T00:41:30.923Z,22.87
2022-08-26T00:43:57.479Z,22.88
2022-08-26T00:46:30.051Z,22.87
2022-08-26T00:49:30.304Z,22.87
2022-08-26T00:52:01.074Z,22.87
2022-08-26T00:54:33.308Z,22.87
2022-08-26T00:57:08.602Z,22.87
2022-08-26T00:59:45.374Z,22.87
2022-08-26T01:02:18.054Z,22.87
2022-08-26T01:04:48.589Z,22.87
2022-08-26T01:07:21.754Z,22.88
2022-08-26T01:09:48.430Z,22.87
2022-08-26T01:12:15.851Z,22.87
2022-08-26T01:14:49.534Z,22.86
2022-08-26T01:17:16.274Z,22.87
2022-08-26T01:20:06.583Z,22.87
2022-08-26T01:22:45.491Z,22.87
2022-08-26T01:25:12.908Z,22.87
2022-08-26T01:27:39.517Z,22.87
2022-08-26T01:30:06.810Z,22.86
2022-08-26T01:32:34.611Z,22.86
2022-08-26T01:35:02.056Z,22.86
2022-08-26T01:37:34.755Z,22.86
2022-08-26T01:40:01.435Z,22.85
2022-08-26T01:42:28.652Z,22.86
2022-08-26T01:45:05.784Z,22.87
2022-08-26T01:47:35.550Z,22.86
2022-08-26T01:50:05.986Z,22.87
2022-08-26T01:52:35.744Z,22.86
2022-08-26T01:55:02.579Z,22.86
2022-08-26T01:57:29.530Z,22.85
2022-08-26T02:00:01.535Z,22.85
2022-08-26T02:02:28.243Z,22.86
2022-08-26T02:05:01.727Z,22.85
2022-08-26T02:07:29.445Z,22.86
2022-08-26T02:09:56.855Z,22.86
2022-08-26T02:12:23.723Z,22.86
2022-08-26T02:14:58.070Z,22.86
2022-08-26T02:17:31.306Z,22.86
2022-08-26T02:19:58.156Z,22.86
2022-08-26T02:22:24.876Z,22.85
2022-08-26T02:25:00.798Z,22.86
2022-08-26T02:27:32.911Z,22.85
2022-08-26T02:30:17.786Z,22.86
2022-08-26T02:32:44.914Z,22.85
2022-08-26T02:35:13.989Z,22.84
2022-08-26T02:37:48.051Z,22.85
2022-08-26T02:40:21.680Z,22.86
2022-08-26T02:42:48.627Z,22.85
2022-08-26T02:45:16.338Z,22.85
2022-08-26T02:47:50.775Z,22.84
2022-08-26T02:50:17.344Z,22.85
2022-08-26T02:52:44.276Z,22.84
2022-08-26T02:55:11.086Z,22.86
2022-08-26T02:57:37.747Z,22.84
2022-08-26T03:00:07.631Z,22.84
2022-08-26T03:02:34.419Z,22.84
2022-08-26T03:05:02.033Z,22.84
2022-08-26T03:07:29.741Z,22.85
2022-08-26T03:09:56.849Z,22.84
2022-08-26T03:12:24.064Z,22.85
2022-08-26T03:14:52.908Z,22.84
2022-08-26T03:17:19.565Z,22.85
2022-08-26T03:19:46.107Z,22.84
2022-08-26T03:22:12.695Z,22.84
2022-08-26T03:24:41.562Z,22.83
2022-08-26T03:27:13.355Z,22.84
2022-08-26T03:29:59.740Z,22.84
2022-08-26T03:32:26.928Z,22.84
2022-08-26T03:34:54.129Z,22.84
2022-08-26T03:37:21.683Z,22.83
2022-08-26T03:39:48.978Z,22.84
2022-08-26T03:42:15.939Z,22.84
2022-08-26T03:44:42.520Z,22.84
2022-08-26T03:47:09.428Z,22.84
2022-08-26T03:49:36.164Z,22.83
2022-08-26T03:52:04.599Z,22.83
2022-08-26T03:54:32.351Z,22.84
2022-08-26T03:56:58.903Z,22.84
2022-08-26T03:59:25.815Z,22.83
2022-08-26T04:01:52.484Z,22.84
2022-08-26T04:04:22.724Z,22.83
2022-08-26T04:06:58.216Z,22.84
2022-08-26T04:09:25.682Z,22.84
2022-08-26T04:11:52.251Z,22.82
2022-08-26T04:14:21.358Z,22.84
2022-08-26T04:16:48.765Z,22.83
2022-08-26T04:19:16.824Z,22.83
2022-08-26T04:21:44.122Z,22.83
2022-08-26T04:24:12.167Z,22.83
2022-08-26T04:26:42.845Z,22.83
2022-08-26T04:29:18.153Z,22.83
2022-08-26T04:31:46.042Z,22.84
2022-08-26T04:34:14.189Z,22.83
2022-08-26T04:36:41.912Z,22.82
2022-08-26T04:39:12.090Z,22.83
2022-08-26T04:41:40.071Z,22.83
2022-08-26T04:44:06.872Z,22.83
2022-08-26T04:46:33.503Z,22.83
2022-08-26T04:49:00.153Z,22.82
2022-08-26T04:51:29.781Z,22.82
2022-08-26T04:53:59.666Z,22.83
2022-08-26T04:56:29.071Z,22.83
2022-08-26T04:58:56.497Z,22.83
2022-08-26T05:01:23.931Z,22.82
2022-08-26T05:03:50.912Z,22.83
2022-08-26T05:06:19.414Z,22.82
2022-08-26T05:08:46.091Z,22.82
2022-08-26T05:11:13.538Z,22.83
2022-08-26T05:13:40.474Z,22.82
2022-08-26T05:16:11.568Z,22.82
2022-08-26T05:18:39.625Z,22.82
2022-08-26T05:21:07.176Z,22.83
2022-08-26T05:23:36.027Z,22.83
2022-08-26T05:26:07.030Z,22.82
2022-08-26T05:28:34.996Z,22.82
2022-08-26T05:31:02.086Z,22.82
2022-08-26T05:33:29.371Z,22.82
2022-08-26T05:35:55.842Z,22.81
2022-08-26T05:38:23.595Z,22.82
2022-08-26T05:40:52.881Z,22.82
2022-08-26T05:43:20.387Z,22.82
2022-08-26T05:45:48.398Z,22.82
2022-08-26T05:48:17.819Z,22.81
2022-08-26T05:50:47.415Z,22.81
2022-08-26T05:53:17.486Z,22.81
2022-08-26T05:55:48.486Z,22.81
2022-08-26T05:58:17.429Z,22.82
2022-08-26T06:00:45.154Z,22.83
2022-08-26T06:03:11.858Z,22.84
2022-08-26T06:05:40.036Z,22.86
2022-08-26T06:08:19.215Z,22.88
2022-08-26T06:10:55.125Z,22.88
2022-08-26T06:13:25.554Z,22.88
2022-08-26T06:15:52.731Z,22.86
2022-08-26T06:18:23.274Z,22.86
2022-08-26T06:20:57.934Z,22.85
2022-08-26T06:23:45.329Z,22.84
2022-08-26T06:26:13.656Z,22.85
2022-08-26T06:28:40.208Z,22.85
2022-08-26T06:31:10.598Z,22.85
2022-08-26T06:33:37.792Z,22.86
2022-08-26T06:36:06.715Z,22.85
2022-08-26T06:38:33.539Z,22.86
2022-08-26T06:41:00.953Z,22.86
2022-08-26T06:43:29.574Z,22.86
2022-08-26T06:46:04.999Z,22.86
2022-08-26T06:48:32.111Z,22.87
2022-08-26T06:51:16.682Z,22.87
2022-08-26T06:53:46.834Z,22.86
2022-08-26T06:56:16.311Z,22.87
2022-08-26T06:58:43.535Z,22.87
2022-08-26T07:01:42.824Z,22.87
2022-08-26T07:04:11.436Z,22.88
2022-08-26T07:06:40.567Z,22.87
2022-08-26T07:09:09.854Z,22.87
2022-08-26T07:11:38.861Z,22.89
2022-08-26T07:14:06.734Z,22.87
2022-08-26T07:16:33.822Z,22.89
2022-08-26T07:19:03.619Z,22.88
2022-08-26T07:21:40.456Z,22.89
2022-08-26T07:24:08.000Z,22.89
2022-08-26T07:26:34.832Z,22.89
2022-08-26T07:29:02.027Z,22.89
2022-08-26T07:31:36.079Z,22.90
2022-08-26T07:34:07.617Z,22.90
2022-08-26T07:36:34.594Z,22.90
2022-08-26T07:39:01.197Z,22.89
2022-08-26T07:43:59.763Z,22.90
2022-08-26T07:46:26.966Z,22.91
2022-08-26T07:48:54.154Z,22.91
2022-08-26T07:51:21.938Z,22.91
2022-08-26T07:53:52.325Z,22.91
2022-08-26T07:56:20.028Z,22.92
2022-08-26T07:58:51.361Z,22.91
2022-08-26T08:01:23.696Z,22.91
2022-08-26T08:03:51.752Z,22.92
2022-08-26T08:06:27.366Z,22.92
2022-08-26T08:08:55.629Z,22.92
2022-08-26T08:11:23.066Z,22.92
2022-08-26T08:13:56.237Z,22.92
2022-08-26T08:16:24.696Z,22.93
2022-08-26T08:18:51.362Z,22.92
2022-08-26T08:21:21.565Z,22.90
2022-08-26T08:23:51.418Z,22.92
2022-08-26T08:26:18.095Z,22.91
2022-08-26T08:28:46.252Z,22.92
2022-08-26T08:31:57.056Z,22.96
2022-08-26T08:34:19.190Z,23.00
2022-08-26T08:36:48.179Z,23.02
2022-08-26T08:39:14.731Z,23.02
2022-08-26T08:41:52.847Z,23.01
2022-08-26T08:47:04.123Z,22.99
2022-08-26T08:49:32.824Z,22.99
2022-08-26T08:52:02.264Z,22.99
2022-08-26T08:54:32.464Z,23.01
2022-08-26T08:57:12.857Z,23.01
2022-08-26T08:59:58.625Z,23.00
2022-08-26T09:02:58.728Z,22.99
2022-08-26T09:05:34.774Z,22.98
2022-08-26T09:08:11.132Z,22.98
2022-08-26T09:10:47.065Z,22.98
2022-08-26T09:13:16.362Z,22.99
2022-08-26T09:15:59.067Z,22.98
2022-08-26T09:18:28.297Z,22.99
2022-08-26T09:21:04.438Z,22.98
2022-08-26T09:23:34.091Z,22.99
2022-08-26T09:26:18.120Z,23.00
2022-08-26T09:28:48.528Z,22.97
2022-08-26T09:31:20.051Z,22.99
2022-08-26T09:33:46.975Z,22.98
2022-08-26T09:36:34.445Z,22.98
2022-08-26T09:39:11.695Z,22.99
2022-08-26T09:41:38.268Z,23.00
2022-08-26T09:44:23.055Z,23.00
2022-08-26T09:46:52.630Z,22.98
2022-08-26T09:49:36.266Z,22.99
2022-08-26T09:52:14.178Z,23.00
2022-08-26T09:54:42.356Z,23.00
2022-08-26T09:57:21.873Z,22.98
2022-08-26T09:59:49.540Z,22.99
2022-08-26T10:02:34.534Z,22.99
2022-08-26T10:05:09.567Z,22.98
2022-08-26T10:07:41.954Z,22.98
2022-08-26T10:10:22.070Z,22.98
2022-08-26T10:13:12.536Z,22.98
2022-08-26T10:15:51.196Z,22.98
2022-08-26T10:18:34.105Z,22.98
2022-08-26T10:21:04.003Z,22.98
2022-08-26T10:26:32.352Z,22.98
2022-08-26T10:29:03.780Z,22.98
2022-08-26T10:31:38.159Z,22.97
2022-08-26T10:34:07.156Z,22.97
2022-08-26T10:37:13.788Z,22.97
2022-08-26T10:39:59.180Z,22.96
2022-08-26T10:42:37.634Z,22.96
2022-08-26T10:45:19.813Z,22.96
2022-08-26T10:47:50.287Z,22.95
2022-08-26T10:50:18.155Z,22.95
2022-08-26T10:53:32.622Z,22.97
2022-08-26T10:56:05.506Z,22.97
2022-08-26T10:59:01.727Z,22.97
2022-08-26T11:01:55.189Z,22.97
2022-08-26T11:04:25.597Z,22.97
2022-08-26T11:07:31.718Z,22.97
2022-08-26T11:10:19.442Z,22.99
2022-08-26T11:12:49.242Z,23.03
2022-08-26T11:15:24.583Z,23.04
2022-08-26T11:17:51.427Z,23.06
2022-08-26T11:20:24.271Z,23.07
2022-08-26T11:22:52.144Z,23.08
2022-08-26T11:25:29.650Z,23.08
2022-08-26T11:28:00.604Z,23.11
2022-08-26T11:30:38.193Z,23.12
2022-08-26T11:33:08.214Z,23.11
2022-08-26T11:35:34.862Z,23.11
2022-08-26T11:38:20.195Z,23.09
2022-08-26T11:40:58.004Z,23.06
2022-08-26T11:43:29.884Z,23.04
2022-08-26T11:46:09.200Z,23.03
2022-08-26T11:48:41.856Z,23.01
2022-08-26T11:51:12.026Z,22.99
2022-08-26T11:53:44.663Z,22.99
2022-08-26T11:56:34.620Z,23.00
2022-08-26T11:59:15.582Z,22.98
2022-08-26T12:01:46.335Z,22.98
2022-08-26T12:04:26.425Z,22.97
2022-08-26T12:06:53.451Z,22.96
2022-08-26T12:09:26.667Z,22.95
2022-08-26T12:12:08.603Z,22.95
2022-08-26T12:14:39.676Z,22.95
2022-08-26T12:17:17.463Z,22.96
2022-08-26T12:19:45.903Z,22.95
2022-08-26T12:22:24.632Z,22.95
2022-08-26T12:24:58.624Z,22.94
2022-08-26T12:27:28.766Z,22.94
2022-08-26T12:30:13.943Z,22.93
2022-08-26T12:32:57.667Z,22.94
2022-08-26T12:35:25.313Z,22.93
2022-08-26T12:37:54.056Z,22.93
2022-08-26T12:40:41.605Z,22.94
2022-08-26T12:43:09.526Z,22.93
2022-08-26T12:45:54.794Z,22.93
2022-08-26T12:48:29.834Z,22.93
2022-08-26T12:50:57.842Z,22.93
2022-08-26T12:53:30.318Z,22.92
2022-08-26T12:56:05.066Z,22.91
2022-08-26T12:58:39.420Z,22.92
2022-08-26T13:01:09.030Z,22.91
2022-08-26T13:03:38.687Z,22.92
2022-08-26T13:06:29.447Z,22.92
2022-08-26T13:08:57.925Z,22.92
2022-08-26T13:11:34.751Z,22.93
2022-08-26T13:14:07.779Z,22.92
2022-08-26T13:16:35.747Z,22.92
2022-08-26T13:19:05.848Z,22.92
2022-08-26T13:21:55.446Z,22.92
2022-08-26T13:24:30.112Z,22.92
2022-08-26T13:26:56.691Z,22.92
2022-08-26T13:29:23.346Z,22.92
2022-08-26T13:31:50.688Z,22.92
2022-08-26T13:34:19.976Z,22.93
2022-08-26T13:36:54.125Z,22.92
2022-08-26T13:39:22.387Z,22.91
2022-08-26T13:41:49.298Z,22.92
2022-08-26T13:44:16.003Z,22.93
2022-08-26T13:46:42.750Z,22.91
2022-08-26T13:49:10.119Z,22.92
2022-08-26T13:51:37.651Z,22.93
2022-08-26T13:54:05.348Z,22.92
2022-08-26T13:56:32.795Z,22.92
2022-08-26T13:59:01.176Z,22.91
2022-08-26T14:01:30.422Z,22.91
2022-08-26T14:03:57.278Z,22.91
2022-08-26T14:06:25.212Z,22.92
2022-08-26T14:08:51.838Z,22.91
2022-08-26T14:11:18.726Z,22.91
2022-08-26T14:13:45.278Z,22.92
2022-08-26T14:16:19.471Z,22.92
2022-08-26T14:18:50.515Z,22.91
2022-08-26T14:21:17.404Z,22.91
2022-08-26T14:23:44.010Z,22.90
2022-08-26T14:26:14.345Z,22.91
2022-08-26T14:28:56.470Z,22.91
2022-08-26T14:31:23.869Z,22.90
2022-08-26T14:33:50.698Z,22.90
2022-08-26T14:36:29.324Z,22.90
2022-08-26T14:39:00.158Z,22.90
2022-08-26T14:41:27.160Z,22.90
2022-08-26T14:44:01.207Z,22.91
2022-08-26T14:46:31.670Z,22.91
2022-08-26T14:49:00.985Z,22.91
2022-08-26T14:51:28.848Z,22.91
2022-08-26T14:54:13.474Z,22.92
2022-08-26T14:56:51.261Z,22.91
2022-08-26T14:59:21.423Z,22.90
2022-08-26T15:01:48.105Z,22.92
2022-08-26T15:04:15.758Z,22.90
2022-08-26T15:06:42.483Z,22.91
2022-08-26T15:09:09.144Z,22.90
2022-08-26T15:11:35.773Z,22.90
2022-08-26T15:14:02.805Z,22.90
2022-08-26T15:16:29.593Z,22.90
2022-08-26T15:18:57.079Z,22.90
2022-08-26T15:21:25.652Z,22.90
2022-08-26T15:23:53.366Z,22.90
2022-08-26T15:26:21.806Z,22.91
2022-08-26T15:28:48.716Z,22.90
2022-08-26T15:31:15.609Z,22.91
2022-08-26T15:33:42.701Z,22.91
2022-08-26T15:36:09.718Z,22.90
2022-08-26T15:38:40.011Z,22.91
2022-08-26T15:41:08.746Z,22.92
2022-08-26T15:43:36.891Z,22.92
2022-08-26T15:46:03.775Z,22.91
2022-08-26T15:48:30.360Z,22.91
2022-08-26T15:51:00.500Z,22.91
2022-08-26T15:53:30.403Z,22.91
2022-08-26T15:55:58.498Z,22.91
2022-08-26T15:58:27.164Z,22.91
2022-08-26T16:00:55.791Z,22.91
2022-08-26T16:03:22.644Z,22.91
2022-08-26T16:05:49.403Z,22.90
2022-08-26T16:08:16.188Z,22.91
2022-08-26T16:10:49.965Z,22.91
2022-08-26T16:13:18.959Z,22.89
2022-08-26T16:15:46.408Z,22.92
2022-08-26T16:18:13.898Z,22.91
2022-08-26T16:20:55.195Z,22.92
2022-08-26T16:23:36.014Z,22.91
2022-08-26T16:26:15.233Z,22.92
2022-08-26T16:28:42.236Z,22.92
2022-08-26T16:31:10.640Z,22.91
2022-08-26T16:33:40.707Z,22.92
2022-08-26T16:36:08.348Z,22.91
2022-08-26T16:38:36.259Z,22.92
2022-08-26T16:41:03.739Z,22.91
2022-08-26T16:43:30.335Z,22.91
2022-08-26T16:45:57.428Z,22.92
2022-08-26T16:48:24.307Z,22.91
2022-08-26T16:50:51.689Z,22.91
2022-08-26T16:53:19.048Z,22.92
2022-08-26T16:55:50.466Z,22.93
2022-08-26T16:58:18.483Z,22.92
2022-08-26T17:00:45.504Z,22.92
2022-08-26T17:03:12.476Z,22.92
2022-08-26T17:05:40.207Z,22.91
2022-08-26T17:08:07.283Z,22.91
2022-08-26T17:10:33.923Z,22.91
2022-08-26T17:13:00.716Z,22.92
2022-08-26T17:15:27.729Z,22.91
2022-08-26T17:17:54.766Z,22.92
2022-08-26T17:20:23.407Z,22.92
2022-08-26T17:22:52.413Z,22.91
2022-08-26T17:25:31.661Z,22.91
2022-08-26T17:27:59.171Z,22.91
2022-08-26T17:30:29.820Z,22.91
2022-08-26T17:32:57.615Z,22.91
2022-08-26T17:35:24.879Z,22.91
2022-08-26T17:37:51.998Z,22.92
2022-08-26T17:40:21.951Z,22.91
2022-08-26T17:42:48.833Z,22.91
2022-08-26T17:45:16.430Z,22.92
2022-08-26T17:47:44.063Z,22.92
2022-08-26T17:50:13.260Z,22.92
2022-08-26T17:52:41.211Z,22.92
2022-08-26T17:55:09.767Z,22.92
2022-08-26T17:57:40.924Z,22.91
2022-08-26T18:00:13.699Z,22.92
2022-08-26T18:02:40.652Z,22.92
2022-08-26T18:05:08.399Z,22.92
2022-08-26T18:07:43.725Z,22.92
2022-08-26T18:10:13.299Z,22.92
2022-08-26T18:12:40.988Z,22.92
2022-08-26T18:15:09.493Z,22.93
2022-08-26T18:17:36.149Z,22.93
2022-08-26T18:20:03.076Z,22.92
2022-08-26T18:22:30.147Z,22.92
2022-08-26T18:24:59.084Z,22.92
2022-08-26T18:27:26.508Z,22.92
2022-08-26T18:29:53.164Z,22.93
2022-08-26T18:32:19.679Z,22.93
2022-08-26T18:34:46.218Z,22.93
2022-08-26T18:39:45.453Z,22.92
2022-08-26T18:42:12.823Z,22.92
2022-08-26T18:44:39.371Z,22.92
2022-08-26T18:47:06.072Z,22.91
2022-08-26T18:49:32.604Z,22.92
2022-08-26T18:51:59.146Z,22.93
2022-08-26T18:54:25.986Z,22.93
2022-08-26T18:56:52.944Z,22.92
2022-08-26T18:59:19.630Z,22.92
2022-08-26T19:01:53.419Z,22.91
2022-08-26T19:04:20.122Z,22.93
2022-08-26T19:06:49.367Z,22.92
2022-08-26T19:09:17.911Z,22.92
2022-08-26T19:11:45.660Z,22.92
2022-08-26T19:14:15.485Z,22.92
2022-08-26T19:16:45.143Z,22.92
2022-08-26T19:19:12.571Z,22.92
2022-08-26T19:21:39.749Z,22.93
2022-08-26T19:24:15.219Z,22.92
2022-08-26T19:26:47.515Z,22.91
2022-08-26T19:29:15.401Z,22.92
2022-08-26T19:31:44.075Z,22.92
2022-08-26T19:34:13.015Z,22.92
2022-08-26T19:36:43.050Z,22.91
2022-08-26T19:39:12.198Z,22.92
2022-08-26T19:41:39.840Z,22.93
2022-08-26T19:44:11.007Z,22.92
2022-08-26T19:49:06.075Z,22.92
2022-08-26T19:51:33.886Z,22.93
2022-08-26T19:54:01.238Z,22.93
2022-08-26T19:56:28.657Z,22.92
2022-08-26T19:58:56.059Z,22.92
2022-08-26T20:01:23.191Z,22.92
2022-08-26T20:03:50.173Z,22.91
2022-08-26T20:06:17.548Z,22.91
2022-08-26T20:08:44.656Z,22.91
2022-08-26T20:11:17.447Z,22.91
2022-08-26T20:13:46.679Z,22.91
2022-08-26T20:16:14.014Z,22.91
2022-08-26T20:18:59.644Z,22.92
2022-08-26T20:21:26.851Z,22.92
2022-08-26T20:23:54.810Z,22.92
2022-08-26T20:26:21.343Z,22.93
2022-08-26T20:28:47.899Z,22.92
2022-08-26T20:31:18.551Z,22.93
2022-08-26T20:33:46.609Z,22.92
2022-08-26T20:36:15.081Z,22.92
2022-08-26T20:38:41.661Z,22.92
2022-08-26T20:41:08.463Z,22.93
2022-08-26T20:43:35.120Z,22.92
2022-08-26T20:46:01.760Z,22.92
2022-08-26T20:48:28.359Z,22.92
2022-08-26T20:50:59.955Z,22.93
2022-08-26T20:53:28.708Z,22.93
2022-08-26T20:55:59.475Z,22.92
2022-08-26T20:58:26.011Z,22.92
2022-08-26T21:00:52.678Z,22.92
2022-08-26T21:03:19.256Z,22.93
2022-08-26T21:05:45.879Z,22.92
2022-08-26T21:08:13.179Z,22.92
2022-08-26T21:10:39.815Z,22.94
2022-08-26T21:13:07.414Z,22.92
2022-08-26T21:15:35.161Z,22.92
2022-08-26T21:18:01.779Z,22.91
2022-08-26T21:20:28.349Z,22.91
2022-08-26T21:22:55.055Z,22.93
2022-08-26T21:25:21.767Z,22.91
2022-08-26T21:27:48.280Z,22.91
2022-08-26T21:30:15.910Z,22.92
2022-08-26T21:32:42.955Z,22.92
2022-08-26T21:35:09.994Z,22.92
2022-08-26T21:37:36.639Z,22.92
2022-08-26T21:40:05.300Z,22.93
2022-08-26T21:42:33.423Z,22.91
2022-08-26T21:45:01.119Z,22.92
2022-08-26T21:47:28.174Z,22.93
2022-08-26T21:49:54.764Z,22.92
2022-08-26T21:52:21.480Z,22.93
2022-08-26T21:54:49.454Z,22.93
2022-08-26T21:57:16.677Z,22.93
2022-08-26T21:59:43.183Z,22.95
2022-08-26T22:02:10.950Z,22.94
2022-08-26T22:04:37.685Z,22.95
2022-08-26T22:07:04.296Z,22.95
2022-08-26T22:09:31.676Z,22.95
2022-08-26T22:11:59.254Z,22.95
2022-08-26T22:14:30.873Z,22.94
2022-08-26T22:16:59.405Z,22.94
2022-08-26T22:19:26.096Z,22.95
2022-08-26T22:21:54.614Z,22.94
2022-08-26T22:24:23.783Z,22.95
2022-08-26T22:26:50.925Z,22.94
2022-08-26T22:29:18.776Z,22.95
2022-08-26T22:31:46.046Z,22.95
2022-08-26T22:34:15.654Z,22.95
2022-08-26T22:36:44.415Z,22.95
2022-08-26T22:39:15.974Z,22.95
2022-08-26T22:41:43.654Z,22.95
2022-08-26T22:44:11.854Z,22.95
2022-08-26T22:46:40.289Z,22.95
2022-08-26T22:49:09.431Z,22.95
2022-08-26T22:51:36.027Z,22.94
2022-08-26T22:54:02.622Z,22.96
2022-08-26T22:56:29.968Z,22.95
2022-08-26T22:58:56.535Z,22.95
2022-08-26T23:01:23.863Z,22.95
2022-08-26T23:03:50.742Z,22.95
2022-08-26T23:06:17.394Z,22.97
2022-08-26T23:08:46.290Z,22.97
2022-08-26T23:11:14.866Z,22.97
2022-08-26T23:13:41.433Z,22.97
2022-08-26T23:16:10.962Z,22.97
2022-08-26T23:18:38.492Z,22.98
2022-08-26T23:21:06.050Z,22.97
2022-08-26T23:23:32.875Z,22.97
2022-08-26T23:26:00.216Z,22.97
2022-08-26T23:28:28.861Z,22.96
2022-08-26T23:30:55.454Z,22.96
2022-08-26T23:33:21.971Z,22.95
2022-08-26T23:35:48.516Z,22.96
2022-08-26T23:38:15.954Z,22.95
2022-08-26T23:40:42.543Z,22.95
2022-08-26T23:43:11.571Z,22.95
2022-08-26T23:45:38.548Z,22.95
2022-08-26T23:48:06.336Z,22.95
2022-08-26T23:50:51.544Z,22.96
2022-08-26T23:53:21.776Z,22.95
2022-08-26T23:55:50.975Z,22.95
2022-08-26T23:58:19.355Z,22.96
